createdAt,value
2023-01-15T00:00:24.816Z,669.6
2023-01-15T00:01:27.419Z,669.5
2023-01-15T00:02:30.159Z,669.9
2023-01-15T00:03:32.845Z,669.9
2023-01-15T00:04:35.372Z,670.1
2023-01-15T00:05:37.894Z,670.4
2023-01-15T00:06:40.414Z,670
2023-01-15T00:07:42.930Z,670.4
2023-01-15T00:08:45.423Z,670.9
2023-01-15T00:09:47.439Z,671.9
2023-01-15T00:10:50.042Z,671
2023-01-15T00:11:52.285Z,670.9
2023-01-15T00:12:54.522Z,671.9
2023-01-15T00:13:56.750Z,671.5
2023-01-15T00:14:59.028Z,671.8
2023-01-15T00:16:01.276Z,671.6
2023-01-15T00:17:03.565Z,671.1
2023-01-15T00:18:05.550Z,671.8
2023-01-15T00:19:08.043Z,671.1
2023-01-15T00:20:10.026Z,671.4
2023-01-15T00:21:12.545Z,671.6
2023-01-15T00:22:14.809Z,671.3
2023-01-15T00:23:17.054Z,671.4
2023-01-15T00:24:19.570Z,671.4
2023-01-15T00:25:21.536Z,671.3
2023-01-15T00:26:24.039Z,671.5
2023-01-15T00:27:26.540Z,671.6
2023-01-15T00:28:28.830Z,671.7
2023-01-15T00:29:31.394Z,671.8
2023-01-15T00:30:33.362Z,671.4
2023-01-15T00:31:35.946Z,671.6
2023-01-15T00:32:38.460Z,672
2023-01-15T00:33:40.684Z,672.4
2023-01-15T00:34:43.222Z,673
2023-01-15T00:35:45.713Z,673
2023-01-15T00:36:48.323Z,672.8
2023-01-15T00:37:50.818Z,673.4
2023-01-15T00:38:53.303Z,674
2023-01-15T00:39:55.526Z,673.3
2023-01-15T00:40:57.751Z,673.4
2023-01-15T00:42:00.032Z,673.7
2023-01-15T00:43:02.233Z,674.6
2023-01-15T00:44:04.752Z,674.2
2023-01-15T00:45:07.704Z,674.9
2023-01-15T00:46:10.274Z,675.2
2023-01-15T00:47:12.827Z,674.6
2023-01-15T00:48:15.317Z,673.9
2023-01-15T00:49:16.989Z,673.9
2023-01-15T00:50:19.502Z,673.5
2023-01-15T00:51:22.000Z,673.7
2023-01-15T00:52:24.328Z,674.1
2023-01-15T00:53:26.538Z,674.6
2023-01-15T00:54:28.484Z,674.7
2023-01-15T00:55:30.699Z,674
2023-01-15T00:56:32.912Z,673.5
2023-01-15T00:57:35.421Z,673.9
2023-01-15T00:58:37.925Z,674.6
2023-01-15T00:59:40.170Z,675.1
2023-01-15T01:00:42.887Z,675.1
2023-01-15T01:01:46.211Z,673.7
2023-01-15T01:02:48.706Z,673.3
2023-01-15T01:03:50.940Z,674.2
2023-01-15T01:04:53.185Z,674.4
2023-01-15T01:05:55.137Z,675.3
2023-01-15T01:06:57.658Z,675.4
2023-01-15T01:08:00.155Z,675
2023-01-15T01:09:02.717Z,674.3
2023-01-15T01:10:05.253Z,674.2
2023-01-15T01:11:07.772Z,675.6
2023-01-15T01:12:10.349Z,676.1
2023-01-15T01:13:12.853Z,676.8
2023-01-15T01:14:15.390Z,675.9
2023-01-15T01:15:17.878Z,677
2023-01-15T01:16:20.707Z,676.2
2023-01-15T01:17:23.233Z,676.2
2023-01-15T01:18:25.756Z,676.1
2023-01-15T01:19:28.006Z,676.5
2023-01-15T01:20:30.536Z,676.3
2023-01-15T01:21:33.079Z,676.5
2023-01-15T01:22:35.043Z,676
2023-01-15T01:23:37.528Z,675.6
2023-01-15T01:24:40.055Z,676.2
2023-01-15T01:25:42.289Z,676.8
2023-01-15T01:26:44.801Z,677
2023-01-15T01:27:47.294Z,677.6
2023-01-15T01:28:49.521Z,678
2023-01-15T01:29:51.864Z,678.4
2023-01-15T01:30:54.400Z,678.2
2023-01-15T01:31:56.964Z,678.6
2023-01-15T01:32:59.176Z,679
2023-01-15T01:34:01.743Z,679
2023-01-15T01:35:04.247Z,679.2
2023-01-15T01:36:06.565Z,679.8
2023-01-15T01:37:08.833Z,679.9
2023-01-15T01:38:11.087Z,679.9
2023-01-15T01:39:13.349Z,680.3
2023-01-15T01:40:15.858Z,680.1
2023-01-15T01:41:17.809Z,680.9
2023-01-15T01:42:20.019Z,680.8
2023-01-15T01:43:22.275Z,681.3
2023-01-15T01:44:24.793Z,681.7
2023-01-15T01:45:27.808Z,681.8
2023-01-15T01:46:30.082Z,682
2023-01-15T01:47:32.338Z,681.4
2023-01-15T01:48:34.941Z,681.8
2023-01-15T01:49:37.180Z,682.2
2023-01-15T01:50:39.703Z,682.6
2023-01-15T01:51:42.268Z,681.5
2023-01-15T01:52:44.812Z,682
2023-01-15T01:53:47.335Z,682.7
2023-01-15T01:54:49.855Z,683.1
2023-01-15T01:55:51.836Z,683
2023-01-15T01:56:54.059Z,683
2023-01-15T01:57:56.276Z,683.4
2023-01-15T01:58:58.537Z,683.9
2023-01-15T02:00:01.190Z,684.1
2023-01-15T02:01:04.666Z,684.3
2023-01-15T02:02:08.053Z,684.6
2023-01-15T02:03:10.369Z,684.7
2023-01-15T02:04:12.601Z,685.2
2023-01-15T02:05:14.837Z,684.7
2023-01-15T02:06:17.055Z,685
2023-01-15T02:07:19.606Z,684.9
2023-01-15T02:08:21.887Z,685.2
2023-01-15T02:09:24.406Z,685.2
2023-01-15T02:10:26.396Z,684.5
2023-01-15T02:11:28.904Z,684.3
2023-01-15T02:12:31.119Z,684.7
2023-01-15T02:13:33.367Z,685.4
2023-01-15T02:15:40.541Z,685.4
2023-01-15T02:16:43.251Z,685.7
2023-01-15T02:17:45.823Z,685.7
2023-01-15T02:18:48.061Z,685.8
2023-01-15T02:19:50.651Z,686.3
2023-01-15T02:20:52.898Z,685.9
2023-01-15T02:21:55.415Z,686.1
2023-01-15T02:22:57.455Z,686.4
2023-01-15T02:24:02.398Z,686.2
2023-01-15T02:25:07.512Z,686.3
2023-01-15T02:26:10.043Z,686.7
2023-01-15T02:27:12.270Z,687.3
2023-01-15T02:28:14.796Z,687.3
2023-01-15T02:29:17.030Z,687.2
2023-01-15T02:30:19.548Z,687.1
2023-01-15T02:31:21.716Z,686.7
2023-01-15T02:32:23.949Z,687
2023-01-15T02:33:26.459Z,687.5
2023-01-15T02:34:29.021Z,687.8
2023-01-15T02:35:31.534Z,687.7
2023-01-15T02:36:34.023Z,687.7
2023-01-15T02:37:36.234Z,687.7
2023-01-15T02:38:38.739Z,687.3
2023-01-15T02:39:40.966Z,687.7
2023-01-15T02:40:43.483Z,687.6
2023-01-15T02:41:46.010Z,688.1
2023-01-15T02:42:48.507Z,688
2023-01-15T02:43:51.003Z,687.9
2023-01-15T02:44:53.521Z,687.8
2023-01-15T02:45:56.037Z,688.2
2023-01-15T02:46:58.295Z,688.2
2023-01-15T02:48:00.526Z,688.3
2023-01-15T02:49:02.741Z,688.1
2023-01-15T02:50:04.469Z,687.9
2023-01-15T02:51:06.697Z,688.6
2023-01-15T02:52:09.245Z,688.9
2023-01-15T02:53:11.484Z,689
2023-01-15T02:54:13.807Z,689
2023-01-15T02:55:16.331Z,689.2
2023-01-15T02:56:18.554Z,689.1
2023-01-15T02:57:21.095Z,689.3
2023-01-15T02:58:23.356Z,689
2023-01-15T02:59:25.602Z,689.5
2023-01-15T03:00:27.287Z,689.9
2023-01-15T03:01:30.537Z,689.8
2023-01-15T03:02:33.443Z,690
2023-01-15T03:03:35.442Z,689.7
2023-01-15T03:04:37.690Z,690
2023-01-15T03:05:39.660Z,690.3
2023-01-15T03:06:41.058Z,690.3
2023-01-15T03:07:43.629Z,690.4
2023-01-15T03:08:46.127Z,691.1
2023-01-15T03:09:48.626Z,691.1
2023-01-15T03:10:50.872Z,691.8
2023-01-15T03:11:53.092Z,690.4
2023-01-15T03:12:55.600Z,691.5
2023-01-15T03:13:57.871Z,691.6
2023-01-15T03:14:59.806Z,691.1
2023-01-15T03:16:02.337Z,691.9
2023-01-15T03:17:04.552Z,691.6
2023-01-15T03:18:06.486Z,692
2023-01-15T03:19:08.729Z,691.9
2023-01-15T03:20:10.968Z,692.2
2023-01-15T03:21:13.198Z,692.6
2023-01-15T03:22:15.138Z,693.1
2023-01-15T03:23:17.654Z,692.7
2023-01-15T03:24:20.155Z,692.6
2023-01-15T03:25:22.680Z,692.7
2023-01-15T03:26:24.928Z,692.9
2023-01-15T03:27:27.200Z,692.7
2023-01-15T03:28:29.461Z,692.5
2023-01-15T03:29:31.805Z,693.5
2023-01-15T03:30:34.646Z,692.5
2023-01-15T03:31:36.367Z,692.6
2023-01-15T03:32:38.863Z,694
2023-01-15T03:33:40.808Z,694.6
2023-01-15T03:34:43.305Z,694.2
2023-01-15T03:35:45.585Z,694.4
2023-01-15T03:36:47.824Z,694
2023-01-15T03:37:50.407Z,694.3
2023-01-15T03:38:52.913Z,694.9
2023-01-15T03:39:55.140Z,695.1
2023-01-15T03:40:57.663Z,694.5
2023-01-15T03:42:00.177Z,694.4
2023-01-15T03:43:02.723Z,694.1
2023-01-15T03:44:05.311Z,694.6
2023-01-15T03:45:07.594Z,693.4
2023-01-15T03:46:10.402Z,694.5
2023-01-15T03:47:12.923Z,693.6
2023-01-15T03:48:15.175Z,693.9
2023-01-15T03:49:17.423Z,694.1
2023-01-15T03:50:19.674Z,694.7
2023-01-15T03:51:22.194Z,695.2
2023-01-15T03:52:24.703Z,695.2
2023-01-15T03:53:26.935Z,694.9
2023-01-15T03:54:29.486Z,695.3
2023-01-15T03:55:31.987Z,695.4
2023-01-15T03:56:34.241Z,695.5
2023-01-15T03:57:36.776Z,695.8
2023-01-15T03:58:39.304Z,696.2
2023-01-15T03:59:41.512Z,696.4
2023-01-15T04:00:44.053Z,696.2
2023-01-15T04:01:47.107Z,696.6
2023-01-15T04:02:49.406Z,697
2023-01-15T04:03:51.945Z,696.9
2023-01-15T04:04:54.491Z,697
2023-01-15T04:05:56.710Z,697.1
2023-01-15T04:06:59.260Z,697.3
2023-01-15T04:08:01.813Z,696.7
2023-01-15T04:09:04.034Z,696.6
2023-01-15T04:10:06.624Z,696.5
2023-01-15T04:11:09.166Z,696.6
2023-01-15T04:12:11.733Z,696.8
2023-01-15T04:13:14.245Z,696.3
2023-01-15T04:14:16.747Z,697
2023-01-15T04:15:19.253Z,697.1
2023-01-15T04:16:21.486Z,697
2023-01-15T04:17:23.986Z,697.2
2023-01-15T04:18:26.540Z,697.2
2023-01-15T04:19:29.151Z,697.2
2023-01-15T04:20:31.407Z,696.7
2023-01-15T04:21:33.667Z,696.9
2023-01-15T04:22:36.187Z,697.1
2023-01-15T04:23:38.139Z,697.3
2023-01-15T04:24:40.711Z,697
2023-01-15T04:25:42.963Z,697.5
2023-01-15T04:26:45.488Z,697.8
2023-01-15T04:27:48.003Z,698
2023-01-15T04:28:50.512Z,698.3
2023-01-15T04:29:52.492Z,698.5
2023-01-15T04:30:55.169Z,698.2
2023-01-15T04:31:57.929Z,698.1
2023-01-15T04:33:00.246Z,698.2
2023-01-15T04:34:02.779Z,698.3
2023-01-15T04:35:05.307Z,698.7
2023-01-15T04:36:07.841Z,698.8
2023-01-15T04:37:10.403Z,698.9
2023-01-15T04:38:12.648Z,698.9
2023-01-15T04:39:15.139Z,699.4
2023-01-15T04:40:18.395Z,699.2
2023-01-15T04:41:20.073Z,699.7
2023-01-15T04:42:22.308Z,700
2023-01-15T04:43:24.799Z,700
2023-01-15T04:44:27.301Z,699.7
2023-01-15T04:45:29.793Z,699.6
2023-01-15T04:46:32.732Z,699.7
2023-01-15T04:47:35.020Z,700.1
2023-01-15T04:48:37.294Z,700.2
2023-01-15T04:49:39.534Z,700
2023-01-15T04:50:42.291Z,699.9
2023-01-15T04:51:44.590Z,700.3
2023-01-15T04:52:46.573Z,699.5
2023-01-15T04:53:48.562Z,699.2
2023-01-15T04:54:51.118Z,699.1
2023-01-15T04:55:53.628Z,699.1
2023-01-15T04:56:56.180Z,698.9
2023-01-15T04:57:58.158Z,699
2023-01-15T04:59:00.379Z,699
2023-01-15T05:00:02.638Z,699.2
2023-01-15T05:01:05.391Z,699.1
2023-01-15T05:02:09.588Z,699
2023-01-15T05:03:12.195Z,699.3
2023-01-15T05:04:14.592Z,699.7
2023-01-15T05:05:17.119Z,699.5
2023-01-15T05:06:19.604Z,699.7
2023-01-15T05:07:22.122Z,699.3
2023-01-15T05:08:24.630Z,700.1
2023-01-15T05:09:26.902Z,699.5
2023-01-15T05:10:29.410Z,699.4
2023-01-15T05:11:31.935Z,699.5
2023-01-15T05:12:34.436Z,699.3
2023-01-15T05:13:36.943Z,699
2023-01-15T05:14:39.168Z,698.6
2023-01-15T05:15:41.672Z,698.4
2023-01-15T05:16:44.208Z,699
2023-01-15T05:17:46.452Z,698.6
2023-01-15T05:18:48.971Z,698.5
2023-01-15T05:19:50.916Z,698.5
2023-01-15T05:20:53.182Z,698.6
2023-01-15T05:21:55.437Z,698.3
2023-01-15T05:22:57.401Z,698.3
2023-01-15T05:23:59.929Z,697.8
2023-01-15T05:25:02.497Z,698.6
2023-01-15T05:26:05.022Z,698.7
2023-01-15T05:27:07.238Z,699.6
2023-01-15T05:28:09.548Z,699.6
2023-01-15T05:29:11.860Z,700
2023-01-15T05:30:14.372Z,700.2
2023-01-15T05:31:16.867Z,700.5
2023-01-15T05:32:19.388Z,700.7
2023-01-15T05:33:21.875Z,699.9
2023-01-15T05:34:24.141Z,700.5
2023-01-15T05:35:26.697Z,700.2
2023-01-15T05:36:28.913Z,699.8
2023-01-15T05:37:31.127Z,700.5
2023-01-15T05:38:33.386Z,700.3
2023-01-15T05:39:35.871Z,701.3
2023-01-15T05:40:38.127Z,701.6
2023-01-15T05:41:40.620Z,701.5
2023-01-15T05:42:43.148Z,701.9
2023-01-15T05:43:45.638Z,702
2023-01-15T05:44:48.111Z,702.1
2023-01-15T05:45:50.384Z,702.4
2023-01-15T05:46:52.984Z,702
2023-01-15T05:47:55.504Z,702.6
2023-01-15T05:48:57.448Z,701.7
2023-01-15T05:49:59.681Z,700.9
2023-01-15T05:51:01.908Z,700.6
2023-01-15T05:52:03.874Z,700.5
2023-01-15T05:53:06.150Z,700.8
2023-01-15T05:54:08.679Z,700.1
2023-01-15T05:55:10.731Z,700.4
2023-01-15T05:56:12.708Z,700.5
2023-01-15T05:57:15.204Z,700.7
2023-01-15T05:58:17.161Z,700.6
2023-01-15T05:59:19.711Z,700.9
2023-01-15T06:00:21.938Z,701.1
2023-01-15T06:01:24.886Z,700.5
2023-01-15T06:02:27.675Z,701.4
2023-01-15T06:03:30.183Z,701.6
2023-01-15T06:04:32.769Z,701
2023-01-15T06:05:34.708Z,701.4
2023-01-15T06:06:36.947Z,701.4
2023-01-15T06:07:39.437Z,700.9
2023-01-15T06:08:41.655Z,701.1
2023-01-15T06:09:44.183Z,701.1
2023-01-15T06:10:46.129Z,701.1
2023-01-15T06:11:48.426Z,701
2023-01-15T06:12:50.379Z,700.3
2023-01-15T06:13:52.906Z,701.2
2023-01-15T06:14:55.436Z,701.3
2023-01-15T06:15:58.275Z,701.1
2023-01-15T06:17:00.789Z,701
2023-01-15T06:18:02.786Z,700.5
2023-01-15T06:19:05.446Z,700.8
2023-01-15T06:20:07.670Z,700.2
2023-01-15T06:21:10.172Z,699.6
2023-01-15T06:22:13.149Z,700.4
2023-01-15T06:23:15.114Z,700.2
2023-01-15T06:24:17.729Z,700.4
2023-01-15T06:25:20.254Z,699.8
2023-01-15T06:26:22.751Z,700.1
2023-01-15T06:27:25.280Z,699.6
2023-01-15T06:28:27.816Z,699.9
2023-01-15T06:29:30.052Z,700.3
2023-01-15T06:30:32.290Z,700.4
2023-01-15T06:31:35.276Z,700.2
2023-01-15T06:32:37.567Z,700.3
2023-01-15T06:33:39.806Z,699.9
2023-01-15T06:34:41.747Z,699.2
2023-01-15T06:35:44.005Z,699.8
2023-01-15T06:36:46.225Z,700.1
2023-01-15T06:37:48.723Z,699.7
2023-01-15T06:38:51.246Z,700
2023-01-15T06:39:53.754Z,700.7
2023-01-15T06:40:55.692Z,700
2023-01-15T06:41:57.928Z,700.5
2023-01-15T06:43:00.211Z,700
2023-01-15T06:44:02.705Z,699.7
2023-01-15T06:45:05.330Z,699.5
2023-01-15T06:46:07.820Z,700.6
2023-01-15T06:47:10.407Z,700.1
2023-01-15T06:48:12.905Z,700
2023-01-15T06:49:15.428Z,700.2
2023-01-15T06:50:17.697Z,699.6
2023-01-15T06:51:19.647Z,700.1
2023-01-15T06:52:21.955Z,700.9
2023-01-15T06:53:24.171Z,700.3
2023-01-15T06:54:26.427Z,700.4
2023-01-15T06:55:28.981Z,700.3
2023-01-15T06:56:31.197Z,701.4
2023-01-15T06:57:33.732Z,700.7
2023-01-15T06:58:35.952Z,700.4
2023-01-15T06:59:37.979Z,700.6
2023-01-15T07:00:40.801Z,702.3
2023-01-15T07:01:43.376Z,699
2023-01-15T07:02:45.925Z,701.1
2023-01-15T07:03:48.702Z,700.5
2023-01-15T07:04:51.047Z,702
2023-01-15T07:05:53.278Z,700.9
2023-01-15T07:06:55.534Z,702.2
2023-01-15T07:07:58.057Z,701.6
2023-01-15T07:09:00.025Z,702.3
2023-01-15T07:10:02.373Z,702.4
2023-01-15T07:11:04.987Z,702.8
2023-01-15T07:12:07.244Z,702.2
2023-01-15T07:13:09.452Z,703
2023-01-15T07:14:12.120Z,703.1
2023-01-15T07:15:14.389Z,703.6
2023-01-15T07:16:16.843Z,702.8
2023-01-15T07:17:19.395Z,703.8
2023-01-15T07:18:21.933Z,703
2023-01-15T07:19:23.688Z,702.7
2023-01-15T07:20:26.212Z,704.1
2023-01-15T07:21:28.448Z,703.1
2023-01-15T07:22:30.687Z,703.8
2023-01-15T07:23:32.953Z,703.4
2023-01-15T07:24:35.539Z,704.2
2023-01-15T07:25:38.048Z,703.3
2023-01-15T07:26:40.610Z,703.7
2023-01-15T07:27:43.153Z,703.6
2023-01-15T07:28:45.691Z,702.8
2023-01-15T07:29:48.189Z,703.3
2023-01-15T07:30:50.715Z,703.8
2023-01-15T07:31:53.419Z,702.6
2023-01-15T07:32:55.654Z,704.5
2023-01-15T07:33:58.156Z,703.5
2023-01-15T07:35:00.665Z,704
2023-01-15T07:36:03.153Z,702.7
2023-01-15T07:37:05.395Z,703.3
2023-01-15T07:38:07.918Z,702.7
2023-01-15T07:39:10.438Z,702.8
2023-01-15T07:40:12.670Z,702.2
2023-01-15T07:41:15.167Z,702.4
2023-01-15T07:42:17.671Z,702.2
2023-01-15T07:43:20.204Z,701.3
2023-01-15T07:44:22.156Z,701.4
2023-01-15T07:45:24.928Z,702.2
2023-01-15T07:46:27.454Z,700.2
2023-01-15T07:47:29.101Z,701
2023-01-15T07:48:31.619Z,699.5
2023-01-15T07:49:33.840Z,700.7
2023-01-15T07:50:36.361Z,701.7
2023-01-15T07:51:38.873Z,701.3
2023-01-15T07:52:41.121Z,702.6
2023-01-15T07:53:43.690Z,701.2
2023-01-15T07:54:45.991Z,701.5
2023-01-15T07:55:48.229Z,701.4
2023-01-15T07:56:50.729Z,701.1
2023-01-15T07:57:53.025Z,700
2023-01-15T07:58:55.276Z,701.5
2023-01-15T07:59:57.785Z,701.1
2023-01-15T08:01:00.709Z,701.5
2023-01-15T08:02:03.946Z,701.9
2023-01-15T08:03:06.501Z,701.2
2023-01-15T08:04:09.411Z,699.5
2023-01-15T08:05:12.067Z,700.8
2023-01-15T08:06:14.068Z,701.5
2023-01-15T08:07:16.601Z,699.2
2023-01-15T08:08:18.835Z,700.4
2023-01-15T08:09:21.083Z,701.7
2023-01-15T08:10:23.594Z,701.1
2023-01-15T08:11:26.129Z,700
2023-01-15T08:12:28.677Z,702.5
2023-01-15T08:13:31.194Z,701.4
2023-01-15T08:14:33.409Z,701.4
2023-01-15T08:15:35.637Z,701
2023-01-15T08:16:38.557Z,702.5
2023-01-15T08:17:40.535Z,702
2023-01-15T08:18:42.796Z,701.7
2023-01-15T08:19:45.016Z,702.1
2023-01-15T08:20:49.262Z,701.7
2023-01-15T08:21:51.796Z,702
2023-01-15T08:22:54.451Z,702.4
2023-01-15T08:23:56.685Z,701.2
2023-01-15T08:24:58.693Z,701.1
2023-01-15T08:26:01.215Z,701.3
2023-01-15T08:27:03.729Z,701.5
2023-01-15T08:28:06.256Z,701.3
2023-01-15T08:29:08.814Z,700.8
2023-01-15T08:30:11.044Z,701.1
2023-01-15T08:31:13.624Z,701.6
2023-01-15T08:32:16.166Z,702.1
2023-01-15T08:33:18.680Z,701.6
2023-01-15T08:34:21.227Z,702
2023-01-15T08:35:23.725Z,701.4
2023-01-15T08:36:26.262Z,702
2023-01-15T08:37:28.479Z,702
2023-01-15T08:38:31.016Z,702.1
2023-01-15T08:39:33.518Z,702.2
2023-01-15T08:40:36.022Z,702.1
2023-01-15T08:41:37.962Z,702.7
2023-01-15T08:42:39.952Z,702.9
2023-01-15T08:43:42.187Z,702.5
2023-01-15T08:44:44.431Z,703.1
2023-01-15T08:45:46.867Z,703.2
2023-01-15T08:46:49.396Z,703.3
2023-01-15T08:47:51.929Z,703.8
2023-01-15T08:48:54.479Z,704
2023-01-15T08:49:57.007Z,702.8
2023-01-15T08:50:59.537Z,702.6
2023-01-15T08:52:02.131Z,704
2023-01-15T08:53:03.803Z,704.7
2023-01-15T08:54:06.323Z,703.2
2023-01-15T08:55:08.927Z,703.7
2023-01-15T08:56:11.280Z,704.2
2023-01-15T08:57:13.806Z,704.1
2023-01-15T08:58:15.770Z,705.2
2023-01-15T08:59:18.287Z,705.6
2023-01-15T09:00:20.556Z,703.8
2023-01-15T09:01:23.045Z,703.6
2023-01-15T09:02:25.040Z,705.4
2023-01-15T09:03:26.972Z,705.6
2023-01-15T09:04:29.483Z,705.7
2023-01-15T09:05:32.047Z,705.3
2023-01-15T09:06:34.566Z,705.2
2023-01-15T09:07:36.867Z,706
2023-01-15T09:08:39.468Z,705.4
2023-01-15T09:09:41.704Z,705.1
2023-01-15T09:10:43.937Z,705.5
2023-01-15T09:11:47.348Z,706
2023-01-15T09:12:49.619Z,705.3
2023-01-15T09:13:51.853Z,706
2023-01-15T09:15:59.364Z,706
2023-01-15T09:17:01.650Z,706.2
2023-01-15T09:18:04.161Z,706.8
2023-01-15T09:19:06.451Z,706.6
2023-01-15T09:20:09.024Z,706.7
2023-01-15T09:21:11.028Z,706.2
2023-01-15T09:22:13.450Z,707.4
2023-01-15T09:23:15.975Z,707.8
2023-01-15T09:24:18.519Z,707.9
2023-01-15T09:25:20.578Z,708.7
2023-01-15T09:26:23.129Z,708.9
2023-01-15T09:27:24.821Z,708.9
2023-01-15T09:28:27.058Z,708.7
2023-01-15T09:29:29.581Z,709.9
2023-01-15T09:30:32.349Z,709.2
2023-01-15T09:31:34.755Z,708.6
2023-01-15T09:32:37.007Z,708.9
2023-01-15T09:33:39.305Z,709.6
2023-01-15T09:34:41.837Z,709.6
2023-01-15T09:35:44.477Z,710.1
2023-01-15T09:36:47.060Z,707.1
2023-01-15T09:37:49.279Z,708.8
2023-01-15T09:38:51.889Z,709.9
2023-01-15T09:39:54.402Z,709
2023-01-15T09:40:56.924Z,709.4
2023-01-15T09:41:59.889Z,710.1
2023-01-15T09:43:02.125Z,709.8
2023-01-15T09:44:04.640Z,710.3
2023-01-15T09:45:06.300Z,709.6
2023-01-15T09:46:08.491Z,709.5
2023-01-15T09:47:11.058Z,710.2
2023-01-15T09:48:13.081Z,710.9
2023-01-15T09:49:15.340Z,710.8
2023-01-15T09:50:17.887Z,712.2
2023-01-15T09:51:20.404Z,711.5
2023-01-15T09:52:22.357Z,710.3
2023-01-15T09:53:24.308Z,710.6
2023-01-15T09:54:26.835Z,712.1
2023-01-15T09:55:29.089Z,710.7
2023-01-15T09:56:31.286Z,710.7
2023-01-15T09:57:33.517Z,709.8
2023-01-15T09:58:36.019Z,709.3
2023-01-15T09:59:38.542Z,708.7
2023-01-15T10:00:40.769Z,708.4
2023-01-15T10:01:42.751Z,708.2
2023-01-15T10:02:45.352Z,707.6
2023-01-15T10:03:48.366Z,706.1
2023-01-15T10:04:50.600Z,704.4
2023-01-15T10:05:52.928Z,703.8
2023-01-15T10:06:55.163Z,700.9
2023-01-15T10:07:57.433Z,700.9
2023-01-15T10:08:59.987Z,699.3
2023-01-15T10:10:02.512Z,697.4
2023-01-15T10:11:04.789Z,696
2023-01-15T10:12:07.074Z,696.4
2023-01-15T10:13:09.045Z,696.2
2023-01-15T10:14:11.288Z,695
2023-01-15T10:15:13.877Z,693.8
2023-01-15T10:16:16.455Z,693.3
2023-01-15T10:17:18.972Z,691.4
2023-01-15T10:18:21.561Z,690.6
2023-01-15T10:19:23.530Z,690.7
2023-01-15T10:20:25.502Z,689.7
2023-01-15T10:21:27.173Z,689.5
2023-01-15T10:22:29.501Z,688.9
2023-01-15T10:23:31.738Z,688.3
2023-01-15T10:24:34.019Z,688.6
2023-01-15T10:25:36.290Z,688.4
2023-01-15T10:26:38.892Z,687.7
2023-01-15T10:27:41.161Z,688.1
2023-01-15T10:28:43.121Z,688.1
2023-01-15T10:29:45.387Z,687.3
2023-01-15T10:30:47.979Z,686
2023-01-15T10:31:50.259Z,685.8
2023-01-15T10:33:57.768Z,685.2
2023-01-15T10:35:00.318Z,685.2
2023-01-15T10:36:02.843Z,685.4
2023-01-15T10:37:05.101Z,684.1
2023-01-15T10:38:07.223Z,684.7
2023-01-15T10:39:09.483Z,684.4
2023-01-15T10:40:12.187Z,685.3
2023-01-15T10:41:14.457Z,684.4
2023-01-15T10:42:16.717Z,684.1
2023-01-15T10:43:18.999Z,684.4
2023-01-15T10:44:21.261Z,684.1
2023-01-15T10:45:23.811Z,683.5
2023-01-15T10:46:26.296Z,683.5
2023-01-15T10:47:28.551Z,683.8
2023-01-15T10:48:31.096Z,684.5
2023-01-15T10:49:33.054Z,683.8
2023-01-15T10:50:35.038Z,683.9
2023-01-15T10:51:37.569Z,683.1
2023-01-15T10:52:39.243Z,682.9
2023-01-15T10:53:41.493Z,683.1
2023-01-15T10:54:44.206Z,682.5
2023-01-15T10:55:46.797Z,682.7
2023-01-15T10:56:49.065Z,682.3
2023-01-15T10:58:56.315Z,681.3
2023-01-15T10:59:58.641Z,681
2023-01-15T11:01:01.456Z,681.5
2023-01-15T11:02:04.356Z,680.2
2023-01-15T11:03:06.778Z,680.7
2023-01-15T11:04:08.801Z,680.3
2023-01-15T11:05:11.308Z,680.3
2023-01-15T11:06:13.822Z,680.1
2023-01-15T11:07:15.813Z,680.5
2023-01-15T11:09:22.770Z,680.7
2023-01-15T11:10:25.016Z,680.9
2023-01-15T11:11:28.112Z,680.4
2023-01-15T11:12:30.353Z,680.5
2023-01-15T11:13:32.571Z,680.3
2023-01-15T11:14:34.927Z,680.1
2023-01-15T11:15:37.188Z,680.5
2023-01-15T11:16:39.795Z,680.4
2023-01-15T11:17:42.091Z,680
2023-01-15T11:18:44.072Z,680
2023-01-15T11:19:46.046Z,679.4
2023-01-15T11:20:48.340Z,679.1
2023-01-15T11:21:50.548Z,679.7
2023-01-15T11:22:52.229Z,679.6
2023-01-15T11:23:54.190Z,679.5
2023-01-15T11:24:56.709Z,679.3
2023-01-15T11:25:58.964Z,678.9
2023-01-15T11:27:01.556Z,679.6
2023-01-15T11:28:04.139Z,680.1
2023-01-15T11:29:06.667Z,680.2
2023-01-15T11:30:09.216Z,679.2
2023-01-15T11:31:11.825Z,679.2
2023-01-15T11:32:13.577Z,679.1
2023-01-15T11:33:16.106Z,679.5
2023-01-15T11:35:25.138Z,679.8
2023-01-15T11:36:27.125Z,678.6
2023-01-15T11:37:29.691Z,679
2023-01-15T11:38:31.706Z,678.1
2023-01-15T11:39:34.271Z,678
2023-01-15T11:40:36.533Z,677.7
2023-01-15T11:41:38.776Z,677.7
2023-01-15T11:42:41.304Z,676.7
2023-01-15T11:43:43.809Z,677
2023-01-15T11:44:45.801Z,676.6
2023-01-15T11:45:48.045Z,676.7
2023-01-15T11:46:50.319Z,676.2
2023-01-15T11:47:52.565Z,676.1
2023-01-15T11:48:54.521Z,675.9
2023-01-15T11:49:57.055Z,674.7
2023-01-15T11:50:59.570Z,674.6
2023-01-15T11:52:01.266Z,673.6
2023-01-15T11:53:03.768Z,673.4
2023-01-15T11:54:06.314Z,673.1
2023-01-15T11:55:08.831Z,673.5
2023-01-15T11:56:10.824Z,672.6
2023-01-15T11:57:12.548Z,672.8
2023-01-15T11:58:15.113Z,672
2023-01-15T11:59:17.702Z,671.6
2023-01-15T12:00:19.955Z,672.5
2023-01-15T12:01:22.920Z,672.1
2023-01-15T12:02:25.486Z,672.3
2023-01-15T12:03:27.987Z,672.6
2023-01-15T12:04:30.876Z,672.2
2023-01-15T12:05:33.450Z,672.1
2023-01-15T12:06:36.087Z,671.4
2023-01-15T12:07:38.596Z,671.1
2023-01-15T12:08:40.859Z,670.5
2023-01-15T12:09:43.392Z,670.5
2023-01-15T12:10:45.632Z,670.5
2023-01-15T12:11:48.152Z,670.3
2023-01-15T12:12:50.776Z,670.5
2023-01-15T12:13:53.039Z,670
2023-01-15T12:14:55.346Z,669.8
2023-01-15T12:15:57.552Z,669.3
2023-01-15T12:16:59.888Z,669
2023-01-15T12:18:02.425Z,669.5
2023-01-15T12:19:04.970Z,669.1
2023-01-15T12:20:07.212Z,669.5
2023-01-15T12:21:09.750Z,669.1
2023-01-15T12:22:12.251Z,668.6
2023-01-15T12:23:14.759Z,668.4
2023-01-15T12:24:17.119Z,668.7
2023-01-15T12:25:19.088Z,669.1
2023-01-15T12:26:21.060Z,668.4
2023-01-15T12:27:23.305Z,668.3
2023-01-15T12:28:25.587Z,668.1
2023-01-15T12:29:27.851Z,668.2
2023-01-15T12:30:30.076Z,668.3
2023-01-15T12:31:32.947Z,668.6
2023-01-15T12:32:35.504Z,668.2
2023-01-15T12:33:37.767Z,668.7
2023-01-15T12:34:40.302Z,668.3
2023-01-15T12:35:42.920Z,668.4
2023-01-15T12:36:45.302Z,668.6
2023-01-15T12:37:47.880Z,667.7
2023-01-15T12:38:50.141Z,667.9
2023-01-15T12:39:52.693Z,667.7
2023-01-15T12:40:54.957Z,667.8
2023-01-15T12:41:56.928Z,667.6
2023-01-15T12:42:58.878Z,667.5
2023-01-15T12:44:00.853Z,667.2
2023-01-15T12:45:03.235Z,667.7
2023-01-15T12:46:05.807Z,667.3
2023-01-15T12:47:07.488Z,667.3
2023-01-15T12:48:09.718Z,666.3
2023-01-15T12:49:12.249Z,666.2
2023-01-15T12:50:14.517Z,666
2023-01-15T12:51:17.030Z,665.8
2023-01-15T12:52:19.557Z,665.7
2023-01-15T12:53:21.818Z,665.9
2023-01-15T12:54:24.055Z,665.7
2023-01-15T12:55:26.020Z,665.6
2023-01-15T12:56:28.005Z,664.9
2023-01-15T12:57:30.540Z,665
2023-01-15T12:58:32.783Z,664.5
2023-01-15T12:59:35.315Z,665.3
2023-01-15T13:00:37.768Z,665
2023-01-15T13:01:40.942Z,664.7
2023-01-15T13:02:43.317Z,664.4
2023-01-15T13:03:45.245Z,664.4
2023-01-15T13:04:47.799Z,664.6
2023-01-15T13:05:50.117Z,663.7
2023-01-15T13:06:52.673Z,664
2023-01-15T13:07:54.902Z,663.8
2023-01-15T13:08:56.851Z,663.8
2023-01-15T13:09:58.824Z,663.9
2023-01-15T13:11:00.824Z,663.3
2023-01-15T13:12:02.842Z,664.1
2023-01-15T13:13:05.365Z,663.1
2023-01-15T13:14:07.629Z,663
2023-01-15T13:15:09.842Z,663.2
2023-01-15T13:16:12.162Z,662.5
2023-01-15T13:17:14.762Z,661.7
2023-01-15T13:18:17.308Z,662
2023-01-15T13:19:19.534Z,661.8
2023-01-15T13:20:22.051Z,661.9
2023-01-15T13:21:24.288Z,660.9
2023-01-15T13:22:26.524Z,661.3
2023-01-15T13:23:28.786Z,661.2
2023-01-15T13:24:31.070Z,661.3
2023-01-15T13:25:33.302Z,660.4
2023-01-15T13:26:35.837Z,661
2023-01-15T13:27:38.091Z,660.9
2023-01-15T13:28:40.643Z,660.7
2023-01-15T13:29:43.185Z,660.3
2023-01-15T13:30:48.752Z,660.4
2023-01-15T13:31:51.732Z,660.5
2023-01-15T13:32:54.318Z,659.8
2023-01-15T13:33:56.874Z,659.6
2023-01-15T13:34:59.381Z,659.2
2023-01-15T13:36:01.911Z,658.9